KSDY/SDY METAR and TAF weather

Enter ICAO airport designator
Station Type Date Time Source
KSDY METAR 2021/09/27 05:56 UTC NOAA

KSDY 270556Z AUTO 22004KT 10SM CLR 17/06 A2974 RMK AO2 SLP066 T01720056 10289 20133 50001


Station Type Date Time Source
KSDY Decoded METAR 2021/09/27 05:56 UTC NOAA

Sidney-Richland, MT, United States (KSDY) 47-42N 104-12W
Sep 27, 2021 - 01:56 AM EDT / 2021.09.27 0556 UTC
Wind: from the SW (220 degrees) at 5 MPH (4 KT):0
Visibility: 10 mile(s):0
Sky conditions: clear
Temperature: 63.0 F (17.2 C)
Dew Point: 42.1 F (5.6 C)
Relative Humidity: 46%
Pressure (altimeter): 29.74 in. Hg (1007 hPa)
Pressure tendency: 0.00 inches (0.1 hPa) higher than three hours ago
ob: KSDY 270556Z AUTO 22004KT 10SM CLR 17/06 A2974 RMK AO2 SLP066 T01720056 10289 20133 50001
cycle: 6

Station Type Date Time Source
KSDY TAF 2021/09/27 06:22 UTC NOAA

TAF KSDY 270520Z 2706/2806 VRB06KT P6SM FEW200

Example: see airport list